createdAt,value
2019-05-22T00:00:10.778Z,24.07
2019-05-22T00:02:44.848Z,24.37
2019-05-22T00:05:15.095Z,28.62
2019-05-22T00:07:47.881Z,24.35
2019-05-22T00:10:20.053Z,25.80
2019-05-22T00:12:49.241Z,25.20
2019-05-22T00:15:18.837Z,25.08
2019-05-22T00:17:47.413Z,20.48
2019-05-22T00:20:16.192Z,21.55
2019-05-22T00:22:47.968Z,21.30
2019-05-22T00:25:23.644Z,22.82
2019-05-22T00:27:53.516Z,20.50
2019-05-22T00:30:23.394Z,18.48
2019-05-22T00:32:52.362Z,22.65
2019-05-22T00:35:23.106Z,22.58
2019-05-22T00:37:51.509Z,21.15
2019-05-22T00:40:20.509Z,22.50
2019-05-22T00:43:03.383Z,22.10
2019-05-22T00:45:21.167Z,20.10
2019-05-22T00:47:51.432Z,23.15
2019-05-22T00:50:30.768Z,23.08
2019-05-22T00:53:01.214Z,21.23
2019-05-22T00:55:31.359Z,21.60
2019-05-22T00:58:10.253Z,21.97
2019-05-22T01:00:45.581Z,23.12
2019-05-22T01:03:18.638Z,24.75
2019-05-22T01:05:48.523Z,21.85
2019-05-22T01:08:16.765Z,22.58
2019-05-22T01:10:47.528Z,25.80
2019-05-22T01:13:15.828Z,25.50
2019-05-22T01:15:45.127Z,26.73
2019-05-22T01:18:14.795Z,33.10
2019-05-22T01:20:43.017Z,26.60
2019-05-22T01:23:13.360Z,31.17
2019-05-22T01:25:42.978Z,33.13
2019-05-22T01:28:12.867Z,24.90
2019-05-22T01:30:42.752Z,29.42
2019-05-22T01:33:30.350Z,30.50
2019-05-22T01:36:02.873Z,32.53
2019-05-22T01:38:32.740Z,34.40
2019-05-22T01:41:03.039Z,35.35
2019-05-22T01:43:31.928Z,32.35
2019-05-22T01:46:04.016Z,33.98
2019-05-22T01:48:38.333Z,38.10
2019-05-22T01:51:07.127Z,38.48
2019-05-22T01:53:38.682Z,35.47
2019-05-22T01:56:08.656Z,38.90
2019-05-22T01:58:37.404Z,41.20
2019-05-22T02:01:07.341Z,41.65
2019-05-22T02:03:36.504Z,39.55
2019-05-22T02:06:06.231Z,40.30
2019-05-22T02:08:37.811Z,39.23
2019-05-22T02:11:06.613Z,38.38
2019-05-22T02:13:37.715Z,35.63
2019-05-22T02:16:06.139Z,41.30
2019-05-22T02:18:34.721Z,42.17
2019-05-22T02:21:04.462Z,36.63
2019-05-22T02:23:33.609Z,35.93
2019-05-22T02:26:04.807Z,43.40
2019-05-22T02:28:33.831Z,35.88
2019-05-22T02:31:02.066Z,42.13
2019-05-22T02:33:31.940Z,39.73
2019-05-22T02:36:00.168Z,35.10
2019-05-22T02:38:29.382Z,35.70
2019-05-22T02:40:58.553Z,39.55
2019-05-22T02:43:27.852Z,37.35
2019-05-22T02:45:57.827Z,40.78
2019-05-22T02:48:26.228Z,39.92
2019-05-22T02:50:54.842Z,39.13
2019-05-22T02:53:23.741Z,43.15
2019-05-22T02:55:52.653Z,35.35
2019-05-22T02:58:21.191Z,34.75
2019-05-22T03:00:59.069Z,36.87
2019-05-22T03:03:27.572Z,40.17
2019-05-22T03:05:56.318Z,38.15
2019-05-22T03:08:27.342Z,37.70
2019-05-22T03:10:57.003Z,41.35
2019-05-22T03:13:45.144Z,40.05
2019-05-22T03:16:14.545Z,42.78
2019-05-22T03:18:44.300Z,40.28
2019-05-22T03:21:13.720Z,42.90
2019-05-22T03:23:41.957Z,41.20
2019-05-22T03:26:10.711Z,43.23
2019-05-22T03:28:39.378Z,41.23
2019-05-22T03:31:09.050Z,37.73
2019-05-22T03:33:37.456Z,42.27
2019-05-22T03:36:10.567Z,38.98
2019-05-22T03:38:40.286Z,43.52
2019-05-22T03:41:10.930Z,41.02
2019-05-22T03:43:41.339Z,45.85
2019-05-22T03:46:21.469Z,45.67
2019-05-22T03:48:50.137Z,43.30
2019-05-22T03:51:18.677Z,37.30
2019-05-22T03:53:47.626Z,43.25
2019-05-22T03:56:16.409Z,44.25
2019-05-22T03:58:46.012Z,45.65
2019-05-22T04:01:15.381Z,39.98
2019-05-22T04:03:45.732Z,44.63
2019-05-22T04:06:14.551Z,46.95
2019-05-22T04:08:42.778Z,45.30
2019-05-22T04:11:12.241Z,40.33
2019-05-22T04:13:40.455Z,38.70
2019-05-22T04:16:10.409Z,43.95
2019-05-22T04:18:39.280Z,44.23
2019-05-22T04:21:07.960Z,42.83
2019-05-22T04:23:36.812Z,42.40
2019-05-22T04:26:06.291Z,49.00
2019-05-22T04:28:34.874Z,42.00
2019-05-22T04:31:03.401Z,37.95
2019-05-22T04:33:31.632Z,42.43
2019-05-22T04:36:00.728Z,46.20
2019-05-22T04:38:29.749Z,44.70
2019-05-22T04:40:58.135Z,52.33
2019-05-22T04:43:26.547Z,47.55
2019-05-22T04:45:55.493Z,47.25
2019-05-22T04:48:25.240Z,45.33
2019-05-22T04:50:55.024Z,48.48
2019-05-22T04:53:23.243Z,52.00
2019-05-22T04:55:52.390Z,46.02
2019-05-22T04:58:22.478Z,44.93
2019-05-22T05:00:50.709Z,44.48
2019-05-22T05:03:19.230Z,44.35
2019-05-22T05:05:53.727Z,42.65
2019-05-22T05:08:23.972Z,45.25
2019-05-22T05:10:53.579Z,40.70
2019-05-22T05:13:21.814Z,43.63
2019-05-22T05:15:50.056Z,45.17
2019-05-22T05:18:18.299Z,45.65
2019-05-22T05:20:46.554Z,42.05
2019-05-22T05:23:14.829Z,47.85
2019-05-22T05:25:44.127Z,45.55
2019-05-22T05:28:12.993Z,40.08
2019-05-22T05:30:41.214Z,37.83
2019-05-22T05:33:09.468Z,43.63
2019-05-22T05:35:37.693Z,38.07
2019-05-22T05:38:06.007Z,40.15
2019-05-22T05:40:39.372Z,39.48
2019-05-22T05:43:08.784Z,42.98
2019-05-22T05:45:38.640Z,42.50
2019-05-22T05:48:09.165Z,41.68
2019-05-22T05:50:40.210Z,35.57
2019-05-22T05:53:09.915Z,43.17
2019-05-22T05:55:58.031Z,42.65
2019-05-22T05:58:28.566Z,39.73
2019-05-22T06:01:05.572Z,39.30
2019-05-22T06:03:36.257Z,38.42
2019-05-22T06:06:27.245Z,37.03
2019-05-22T06:09:00.122Z,39.88
2019-05-22T06:11:34.466Z,44.30
2019-05-22T06:14:02.991Z,30.52
2019-05-22T06:16:54.382Z,31.15
2019-05-22T06:19:23.777Z,31.23
2019-05-22T06:21:52.721Z,28.65
2019-05-22T06:24:23.352Z,31.15
2019-05-22T06:26:53.768Z,32.48
2019-05-22T06:29:22.153Z,31.93
2019-05-22T06:32:06.313Z,31.00
2019-05-22T06:34:35.939Z,29.57
2019-05-22T06:37:28.821Z,31.95
2019-05-22T06:39:57.597Z,36.83
2019-05-22T06:42:26.078Z,38.38
2019-05-22T06:44:54.286Z,33.50
2019-05-22T06:47:23.356Z,30.00
2019-05-22T06:49:52.199Z,30.12
2019-05-22T06:52:20.814Z,33.03
2019-05-22T06:54:49.055Z,29.90
2019-05-22T06:57:18.387Z,31.55
2019-05-22T06:59:47.625Z,23.10
2019-05-22T07:02:17.721Z,28.75
2019-05-22T07:04:46.865Z,27.22
2019-05-22T07:07:15.723Z,30.43
2019-05-22T07:09:44.816Z,29.25
2019-05-22T07:12:15.168Z,28.57
2019-05-22T07:15:06.329Z,30.27
2019-05-22T07:17:35.109Z,29.10
2019-05-22T07:20:05.448Z,23.92
2019-05-22T07:22:33.666Z,28.20
2019-05-22T07:25:01.903Z,29.72
2019-05-22T07:27:30.119Z,25.77
2019-05-22T07:29:59.976Z,25.37
2019-05-22T07:32:30.859Z,27.80
2019-05-22T07:34:58.349Z,30.82
2019-05-22T07:37:27.230Z,30.17
2019-05-22T07:39:55.491Z,30.90
2019-05-22T07:42:23.712Z,27.65
2019-05-22T07:44:52.516Z,29.00
2019-05-22T07:47:21.457Z,26.15
2019-05-22T07:49:49.821Z,23.47
2019-05-22T07:52:18.211Z,26.95
2019-05-22T07:54:46.461Z,25.48
2019-05-22T07:57:18.565Z,27.80
2019-05-22T07:59:46.778Z,27.48
2019-05-22T08:02:15.028Z,22.25
2019-05-22T08:04:43.551Z,25.12
2019-05-22T08:07:13.428Z,26.07
2019-05-22T08:09:41.809Z,20.05
2019-05-22T08:12:11.620Z,19.92
2019-05-22T08:14:40.228Z,24.20
2019-05-22T08:17:08.884Z,19.70
2019-05-22T08:19:37.119Z,18.25
2019-05-22T08:22:07.671Z,22.20
2019-05-22T08:24:35.542Z,19.85
2019-05-22T08:27:05.079Z,18.95
2019-05-22T08:29:33.462Z,18.87
2019-05-22T08:32:01.704Z,20.20
2019-05-22T08:34:30.242Z,19.40
2019-05-22T08:36:58.639Z,20.93
2019-05-22T08:39:27.398Z,17.95
2019-05-22T08:41:55.623Z,19.30
2019-05-22T08:44:24.001Z,19.35
2019-05-22T08:46:52.284Z,16.48
2019-05-22T08:49:20.516Z,17.60
2019-05-22T08:51:48.907Z,19.05
2019-05-22T08:54:17.952Z,17.70
2019-05-22T08:56:48.541Z,14.83
2019-05-22T08:59:19.788Z,17.75
2019-05-22T09:01:47.808Z,19.07
2019-05-22T09:04:16.283Z,18.12
2019-05-22T09:06:44.569Z,16.48
2019-05-22T09:09:12.857Z,19.30
2019-05-22T09:11:41.024Z,16.80
2019-05-22T09:14:09.373Z,13.45
2019-05-22T09:16:37.738Z,14.93
2019-05-22T09:19:06.320Z,12.73
2019-05-22T09:21:35.555Z,16.07
2019-05-22T09:24:04.717Z,14.20
2019-05-22T09:26:33.300Z,12.80
2019-05-22T09:29:01.557Z,10.63
2019-05-22T09:31:29.783Z,12.28
2019-05-22T09:33:57.986Z,12.20
2019-05-22T09:36:26.199Z,13.45
2019-05-22T09:38:54.999Z,13.53
2019-05-22T09:41:23.212Z,14.15
2019-05-22T09:43:51.426Z,10.80
2019-05-22T09:46:19.919Z,13.13
2019-05-22T09:48:48.132Z,16.82
2019-05-22T09:51:16.491Z,17.30
2019-05-22T09:53:44.791Z,14.47
2019-05-22T09:56:13.456Z,14.45
2019-05-22T09:58:41.917Z,13.00
2019-05-22T10:01:12.099Z,12.88
2019-05-22T10:03:40.552Z,12.10
2019-05-22T10:06:09.195Z,14.00
2019-05-22T10:08:37.702Z,13.80
2019-05-22T10:11:06.204Z,12.00
2019-05-22T10:13:34.831Z,11.43
2019-05-22T10:16:03.438Z,10.75
2019-05-22T10:18:32.139Z,11.90
2019-05-22T10:21:00.412Z,13.43
2019-05-22T10:23:29.087Z,16.00
2019-05-22T10:25:57.588Z,11.97
2019-05-22T10:28:27.216Z,12.85
2019-05-22T10:30:56.946Z,14.80
2019-05-22T10:33:25.700Z,13.23
2019-05-22T10:35:54.030Z,12.07
2019-05-22T10:38:22.241Z,10.53
2019-05-22T10:40:50.471Z,11.25
2019-05-22T10:43:18.744Z,11.00
2019-05-22T10:45:47.012Z,9.80
2019-05-22T10:48:15.248Z,13.50
2019-05-22T10:50:43.492Z,12.45
2019-05-22T10:53:12.116Z,9.18
2019-05-22T10:55:40.304Z,16.35
2019-05-22T10:58:08.744Z,12.60
2019-05-22T11:00:37.160Z,13.28
2019-05-22T11:03:05.478Z,10.63
2019-05-22T11:05:34.471Z,11.57
2019-05-22T11:08:02.854Z,12.37
2019-05-22T11:10:31.446Z,13.72
2019-05-22T11:12:59.669Z,14.25
2019-05-22T11:15:28.135Z,13.00
2019-05-22T11:17:57.054Z,12.03
2019-05-22T11:20:25.453Z,10.10
2019-05-22T11:22:53.742Z,11.03
2019-05-22T11:25:22.445Z,8.80
2019-05-22T11:27:51.169Z,9.23
2019-05-22T11:30:19.717Z,7.45
2019-05-22T11:32:47.924Z,5.90
2019-05-22T11:35:17.036Z,8.35
2019-05-22T11:37:45.237Z,9.85
2019-05-22T11:40:13.449Z,8.53
2019-05-22T11:42:41.669Z,12.35
2019-05-22T11:45:12.169Z,11.20
2019-05-22T11:47:40.383Z,9.53
2019-05-22T11:50:09.941Z,7.87
2019-05-22T11:52:38.171Z,9.50
2019-05-22T11:55:06.726Z,9.33
2019-05-22T11:57:35.510Z,6.92
2019-05-22T12:00:09.301Z,9.10
2019-05-22T12:02:38.853Z,10.47
2019-05-22T12:05:07.353Z,10.78
2019-05-22T12:07:36.522Z,9.48
2019-05-22T12:10:05.918Z,9.63
2019-05-22T12:12:35.580Z,5.22
2019-05-22T12:15:08.424Z,7.05
2019-05-22T12:17:38.973Z,7.57
2019-05-22T12:20:08.231Z,6.80
2019-05-22T12:22:37.278Z,5.62
2019-05-22T12:25:07.125Z,5.60
2019-05-22T12:27:35.344Z,7.45
2019-05-22T12:30:07.337Z,5.17
2019-05-22T12:32:35.788Z,7.57
2019-05-22T12:35:06.104Z,9.13
2019-05-22T12:37:35.031Z,9.60
2019-05-22T12:40:03.582Z,8.53
2019-05-22T12:42:32.212Z,6.55
2019-05-22T12:45:00.440Z,6.47
2019-05-22T12:47:29.210Z,5.23
2019-05-22T12:49:57.430Z,6.65
2019-05-22T12:52:26.017Z,4.37
2019-05-22T12:54:54.559Z,7.28
2019-05-22T12:57:22.958Z,5.37
2019-05-22T12:59:51.647Z,8.23
2019-05-22T13:02:20.540Z,7.46
2019-05-22T13:04:49.284Z,8.45
2019-05-22T13:07:17.715Z,5.90
2019-05-22T13:09:45.942Z,5.33
2019-05-22T13:12:14.613Z,7.42
2019-05-22T13:14:43.327Z,5.92
2019-05-22T13:17:12.713Z,8.63
2019-05-22T13:19:41.252Z,7.55
2019-05-22T13:22:11.549Z,5.58
2019-05-22T13:24:40.426Z,7.08
2019-05-22T13:27:10.277Z,5.83
2019-05-22T13:29:39.315Z,4.83
2019-05-22T13:32:07.703Z,6.45
2019-05-22T13:34:36.593Z,7.00
2019-05-22T13:37:04.801Z,6.78
2019-05-22T13:39:33.031Z,7.28
2019-05-22T13:42:02.254Z,6.00
2019-05-22T13:44:30.810Z,6.97
2019-05-22T13:46:59.043Z,7.95
2019-05-22T13:49:28.904Z,6.55
2019-05-22T13:51:57.131Z,6.65
2019-05-22T13:54:25.343Z,8.45
2019-05-22T13:56:54.063Z,8.00
2019-05-22T13:59:22.289Z,5.03
2019-05-22T14:01:50.501Z,6.72
2019-05-22T14:04:19.331Z,5.55
2019-05-22T14:06:47.623Z,5.70
2019-05-22T14:09:21.192Z,4.62
2019-05-22T14:11:48.091Z,5.45
2019-05-22T14:14:16.498Z,6.67
2019-05-22T14:16:49.183Z,10.30
2019-05-22T14:19:14.840Z,7.87
2019-05-22T14:21:50.144Z,8.63
2019-05-22T14:24:13.052Z,6.03
2019-05-22T14:26:41.260Z,6.25
2019-05-22T14:29:09.503Z,7.10
2019-05-22T14:31:37.692Z,6.90
2019-05-22T14:34:06.412Z,5.58
2019-05-22T14:36:34.617Z,6.55
2019-05-22T14:39:03.848Z,7.12
2019-05-22T14:41:32.155Z,6.50
2019-05-22T14:44:00.384Z,6.25
2019-05-22T14:46:31.398Z,7.50
2019-05-22T14:48:59.709Z,8.13
2019-05-22T14:51:28.389Z,7.55
2019-05-22T14:53:57.081Z,7.50
2019-05-22T14:56:25.373Z,9.68
2019-05-22T14:58:54.193Z,10.13
2019-05-22T15:01:22.502Z,8.45
2019-05-22T15:03:50.901Z,5.20
2019-05-22T15:06:20.173Z,6.58
2019-05-22T15:08:48.686Z,8.08
2019-05-22T15:11:17.479Z,10.05
2019-05-22T15:13:46.033Z,7.37
2019-05-22T15:16:14.239Z,7.37
2019-05-22T15:18:42.730Z,7.17
2019-05-22T15:21:11.414Z,5.97
2019-05-22T15:23:40.028Z,9.10
2019-05-22T15:26:08.316Z,7.30
2019-05-22T15:28:36.623Z,7.70
2019-05-22T15:31:04.830Z,6.58
2019-05-22T15:33:33.944Z,9.63
2019-05-22T15:36:06.457Z,9.33
2019-05-22T15:38:33.991Z,7.63
2019-05-22T15:41:02.753Z,9.50
2019-05-22T15:43:31.321Z,6.00
2019-05-22T15:45:59.606Z,6.92
2019-05-22T15:48:29.443Z,9.93
2019-05-22T15:50:59.589Z,6.35
2019-05-22T15:53:27.959Z,7.00
2019-05-22T15:55:56.367Z,7.12
2019-05-22T15:58:25.099Z,6.80
2019-05-22T16:00:54.970Z,8.33
2019-05-22T16:03:24.813Z,7.20
2019-05-22T16:05:53.977Z,10.40
2019-05-22T16:08:22.353Z,6.30
2019-05-22T16:10:52.264Z,10.82
2019-05-22T16:13:21.236Z,9.50
2019-05-22T16:15:49.915Z,6.15
2019-05-22T16:18:20.168Z,6.15
2019-05-22T16:20:48.681Z,5.20
2019-05-22T16:23:21.016Z,9.95
2019-05-22T16:25:47.498Z,5.90
2019-05-22T16:28:16.196Z,8.50
2019-05-22T16:30:44.425Z,9.28
2019-05-22T16:33:12.894Z,8.20
2019-05-22T16:35:41.105Z,9.05
2019-05-22T16:38:09.692Z,7.97
2019-05-22T16:40:38.466Z,7.95
2019-05-22T16:43:07.076Z,5.78
2019-05-22T16:45:36.034Z,7.15
2019-05-22T16:48:04.772Z,5.95
2019-05-22T16:50:33.301Z,8.70
2019-05-22T16:53:03.751Z,7.25
2019-05-22T16:55:32.418Z,9.95
2019-05-22T16:58:00.642Z,6.67
2019-05-22T17:00:29.567Z,8.15
2019-05-22T17:02:57.853Z,7.60
2019-05-22T17:05:26.134Z,8.33
2019-05-22T17:07:54.539Z,5.20
2019-05-22T17:10:22.748Z,6.65
2019-05-22T17:12:52.020Z,7.25
2019-05-22T17:15:20.515Z,4.67
2019-05-22T17:17:49.231Z,4.42
2019-05-22T17:20:19.088Z,4.62
2019-05-22T17:22:47.732Z,6.40
2019-05-22T17:25:16.870Z,8.33
2019-05-22T17:27:45.618Z,8.85
2019-05-22T17:30:20.435Z,6.53
2019-05-22T17:32:45.438Z,7.45
2019-05-22T17:35:14.489Z,8.23
2019-05-22T17:37:44.129Z,8.18
2019-05-22T17:40:12.337Z,6.85
2019-05-22T17:42:41.155Z,6.85
2019-05-22T17:45:11.488Z,7.42
2019-05-22T17:47:39.974Z,6.67
2019-05-22T17:50:26.113Z,6.58
2019-05-22T17:52:44.134Z,7.00
2019-05-22T17:55:12.880Z,7.10
2019-05-22T17:57:41.264Z,7.08
2019-05-22T18:00:11.660Z,5.37
2019-05-22T18:02:39.939Z,6.60
2019-05-22T18:05:08.286Z,5.58
2019-05-22T18:07:36.969Z,5.92
2019-05-22T18:10:09.353Z,9.55
2019-05-22T18:12:38.388Z,7.25
2019-05-22T18:15:09.373Z,11.38
2019-05-22T18:17:39.145Z,5.90
2019-05-22T18:20:08.587Z,4.80
2019-05-22T18:22:37.482Z,6.35
2019-05-22T18:25:07.224Z,5.95
2019-05-22T18:27:35.857Z,7.22
2019-05-22T18:30:08.216Z,6.65
2019-05-22T18:32:38.296Z,5.87
2019-05-22T18:35:07.114Z,4.35
2019-05-22T18:37:35.310Z,8.53
2019-05-22T18:40:06.142Z,4.65
2019-05-22T18:42:34.902Z,6.87
2019-05-22T18:45:03.400Z,7.62
2019-05-22T18:47:31.593Z,8.13
2019-05-22T18:49:59.861Z,7.33
2019-05-22T18:52:40.687Z,5.22
2019-05-22T18:54:58.194Z,8.33
2019-05-22T18:57:26.621Z,6.50
2019-05-22T19:00:01.275Z,7.80
2019-05-22T19:02:24.889Z,7.60
2019-05-22T19:04:53.095Z,9.45
2019-05-22T19:07:21.352Z,5.83
2019-05-22T19:09:49.587Z,5.37
2019-05-22T19:12:18.380Z,6.78
2019-05-22T19:14:46.925Z,7.37
2019-05-22T19:17:15.175Z,6.03
2019-05-22T19:19:43.415Z,8.75
2019-05-22T19:22:11.747Z,6.28
2019-05-22T19:24:39.964Z,4.78
2019-05-22T19:27:08.178Z,7.08
2019-05-22T19:29:36.413Z,9.15
2019-05-22T19:32:04.638Z,6.37
2019-05-22T19:34:32.877Z,7.53
2019-05-22T19:37:01.081Z,6.85
2019-05-22T19:39:29.656Z,8.95
2019-05-22T19:42:03.641Z,10.20
2019-05-22T19:44:27.946Z,7.70
2019-05-22T19:46:56.532Z,7.08
2019-05-22T19:49:25.038Z,8.08
2019-05-22T19:51:53.308Z,7.03
2019-05-22T19:54:21.537Z,7.12
2019-05-22T19:56:50.114Z,11.18
2019-05-22T19:59:19.054Z,9.40
2019-05-22T20:01:47.290Z,8.93
2019-05-22T20:04:15.799Z,5.65
2019-05-22T20:06:44.070Z,7.83
2019-05-22T20:09:13.935Z,7.08
2019-05-22T20:11:42.519Z,6.00
2019-05-22T20:14:10.738Z,9.28
2019-05-22T20:16:39.504Z,6.80
2019-05-22T20:19:08.475Z,7.92
2019-05-22T20:21:36.755Z,9.95
2019-05-22T20:24:06.349Z,5.83
2019-05-22T20:26:34.554Z,8.47
2019-05-22T20:29:03.843Z,8.08
2019-05-22T20:31:32.214Z,10.32
2019-05-22T20:34:00.478Z,8.30
2019-05-22T20:36:28.619Z,6.45
2019-05-22T20:38:57.039Z,7.42
2019-05-22T20:41:25.272Z,7.47
2019-05-22T20:43:53.838Z,9.10
2019-05-22T20:46:22.533Z,8.48
2019-05-22T20:48:50.788Z,7.70
2019-05-22T20:51:20.035Z,6.55
2019-05-22T20:53:53.999Z,7.53
2019-05-22T20:56:20.161Z,9.95
2019-05-22T20:58:48.722Z,7.85
2019-05-22T21:01:17.499Z,10.93
2019-05-22T21:03:46.292Z,8.83
2019-05-22T21:06:15.503Z,9.63
2019-05-22T21:08:44.082Z,7.22
2019-05-22T21:11:12.839Z,9.63
2019-05-22T21:13:41.107Z,9.08
2019-05-22T21:16:10.915Z,7.37
2019-05-22T21:18:40.772Z,10.58
2019-05-22T21:21:09.865Z,6.90
2019-05-22T21:23:38.733Z,8.67
2019-05-22T21:26:07.305Z,7.22
2019-05-22T21:28:35.798Z,7.97
2019-05-22T21:31:04.123Z,12.35
2019-05-22T21:33:32.623Z,10.50
2019-05-22T21:36:00.846Z,8.25
2019-05-22T21:38:30.405Z,9.53
2019-05-22T21:40:59.473Z,9.78
2019-05-22T21:43:27.979Z,8.05
2019-05-22T21:45:56.190Z,12.80
2019-05-22T21:48:24.985Z,10.45
2019-05-22T21:50:53.585Z,9.93
2019-05-22T21:53:23.507Z,9.38
2019-05-22T21:56:04.058Z,11.15
2019-05-22T21:58:23.184Z,10.18
2019-05-22T22:00:56.361Z,9.73
2019-05-22T22:03:29.607Z,10.60
2019-05-22T22:08:25.936Z,11.40
2019-05-22T22:10:54.200Z,11.18
2019-05-22T22:13:22.926Z,6.33
2019-05-22T22:15:51.431Z,11.78
2019-05-22T22:18:24.420Z,9.80
2019-05-22T22:20:51.283Z,8.33
2019-05-22T22:23:19.496Z,9.78
2019-05-22T22:25:47.767Z,14.33
2019-05-22T22:28:17.644Z,10.00
2019-05-22T22:30:50.188Z,8.58
2019-05-22T22:33:26.875Z,9.73
2019-05-22T22:35:55.381Z,13.68
2019-05-22T22:38:25.273Z,8.98
2019-05-22T22:40:55.230Z,11.25
2019-05-22T22:43:24.789Z,10.13
2019-05-22T22:45:54.653Z,8.53
2019-05-22T22:48:33.481Z,12.15
2019-05-22T22:51:04.814Z,12.10
2019-05-22T22:53:33.019Z,12.13
2019-05-22T22:56:01.418Z,13.88
2019-05-22T22:58:29.729Z,16.43
2019-05-22T23:00:58.817Z,11.53
2019-05-22T23:03:27.819Z,10.93
2019-05-22T23:05:57.019Z,10.90
2019-05-22T23:08:29.626Z,15.28
2019-05-22T23:10:58.374Z,12.73
2019-05-22T23:13:27.949Z,15.78
2019-05-22T23:15:58.031Z,15.35
2019-05-22T23:18:43.035Z,19.07
2019-05-22T23:21:12.380Z,17.10
2019-05-22T23:23:40.925Z,17.20
2019-05-22T23:26:09.151Z,18.77
2019-05-22T23:28:40.641Z,20.37
2019-05-22T23:31:09.781Z,21.82
2019-05-22T23:33:39.047Z,20.02
2019-05-22T23:36:08.809Z,15.20
2019-05-22T23:38:38.418Z,17.20
2019-05-22T23:41:07.298Z,16.67
2019-05-22T23:43:35.560Z,35.63
2019-05-22T23:46:03.761Z,49.23
2019-05-22T23:48:33.366Z,45.20
2019-05-22T23:51:03.967Z,49.73
2019-05-22T23:53:32.873Z,39.50
2019-05-22T23:56:01.561Z,33.73
2019-05-22T23:58:30.744Z,36.45
